Strona główna
METAR-TAF:

METAR-TAF

Lotnisko :

Port lotniczy Bournemouth

Bournemouth, Anglia

Szerokość geograficzna: 50-47N, Długość geograficzna: 001-50W, wysokość: 11 m

Aktualna obserwacja pogody

Raport powstał 43 minut temu, godzina 05:50 UTC
Wiatr 1 kt od wschodnio-północny wschód
Temperatura 13°C
Wilgotność 100%
Ciśnienie 1020 hPa
Widzialność 10 km lub więcej
Mało chmury na wysokości 4500 ft

METAR: EGHH 210550Z 06001KT 9999 FEW045 13/13 Q1020

czas: 07:33 (06:33 UTC)

Prognoza

Raport powstał 1 godzina i 0 minut temu, godzina 05:33 UTC
Prognoza ważna od 21 godzina 06 UTC do 21 godzina 15 UTC
Wiatr 3 kt z kierunków zmiennych
Widzialność 10 km lub więcej
Rozproszone chmury na wysokości 4500 ft
Stopniowe zmiany
od 21 godzina 07 UTC do 21 godzina 10 UTC
Wiatr 10 kt od południowy zachód

TAF: EGHH 210533Z 2106/2115 VRB03KT 9999 SCT045 BECMG 2107/2110 22010KT

Obserwacja i prognoza pogody dla ponad 4000 lotnisk (raport METAR i TAF).

Dostępne stacje oznaczono żółtymi i czerwonymi punktami na mapie.

Najedź kursorem aby zobaczyć nazwę stacji.

Kliknij aby zobaczyć obserwacje i prognozy pogody.

Aby zmienić mapę: kliknij na zielony przycisk z czarnym krzyżykiem, aby powiększyć; na zielony przycisk z myślnikiem, aby pomniejszyć; na zielone strzałki, aby przejść do map sąsiednich.


METAR-TAF: